createdAt,value
2023-01-12T00:02:20.094Z,6.27
2023-01-12T00:04:47.189Z,6.22
2023-01-12T00:07:16.016Z,6.26
2023-01-12T00:09:43.273Z,6.22
2023-01-12T00:12:12.125Z,6.26
2023-01-12T00:14:40.110Z,6.26
2023-01-12T00:17:11.867Z,6.30
2023-01-12T00:19:40.052Z,6.28
2023-01-12T00:22:07.147Z,6.26
2023-01-12T00:24:44.609Z,6.23
2023-01-12T00:27:16.711Z,6.19
2023-01-12T00:29:44.247Z,6.21
2023-01-12T00:32:18.967Z,6.31
2023-01-12T00:34:46.139Z,6.35
2023-01-12T00:37:13.496Z,6.31
2023-01-12T00:39:45.520Z,6.26
2023-01-12T00:42:32.349Z,6.25
2023-01-12T00:45:17.961Z,6.18
2023-01-12T00:47:45.010Z,6.20
2023-01-12T00:50:11.993Z,6.18
2023-01-12T00:52:39.177Z,6.10
2023-01-12T00:55:07.102Z,6.09
2023-01-12T00:57:34.163Z,6.14
2023-01-12T01:00:01.170Z,6.14
2023-01-12T01:02:28.990Z,6.11
2023-01-12T01:04:56.624Z,6.11
2023-01-12T01:07:24.472Z,6.09
2023-01-12T01:09:52.408Z,6.07
2023-01-12T01:12:19.476Z,6.05
2023-01-12T01:14:48.489Z,6.04
2023-01-12T01:17:15.847Z,6.11
2023-01-12T01:19:43.568Z,6.11
2023-01-12T01:22:13.517Z,6.11
2023-01-12T01:24:41.653Z,6.13
2023-01-12T01:27:08.704Z,6.02
2023-01-12T01:29:35.811Z,6.02
2023-01-12T01:32:02.900Z,6.05
2023-01-12T01:34:30.030Z,6.00
2023-01-12T01:36:57.041Z,6.01
2023-01-12T01:39:24.031Z,5.97
2023-01-12T01:41:51.742Z,6.05
2023-01-12T01:44:30.909Z,6.00
2023-01-12T01:47:27.075Z,5.98
2023-01-12T01:49:59.426Z,5.95
2023-01-12T01:52:34.596Z,6.08
2023-01-12T01:55:17.735Z,6.13
2023-01-12T01:58:09.665Z,6.19
2023-01-12T02:00:39.047Z,6.20
2023-01-12T02:03:08.491Z,6.26
2023-01-12T02:05:39.604Z,6.27
2023-01-12T02:09:01.648Z,6.36
2023-01-12T02:11:48.634Z,6.41
2023-01-12T02:14:33.995Z,6.42
2023-01-12T02:17:46.792Z,6.44
2023-01-12T02:21:06.220Z,6.45
2023-01-12T02:24:16.215Z,6.50
2023-01-12T02:27:29.987Z,6.49
2023-01-12T02:30:50.589Z,6.47
2023-01-12T02:34:01.127Z,6.50
2023-01-12T02:36:58.679Z,6.51
2023-01-12T02:39:59.820Z,6.53
2023-01-12T02:42:54.369Z,6.52
2023-01-12T02:45:47.750Z,6.55
2023-01-12T02:48:47.028Z,6.54
2023-01-12T02:51:37.492Z,6.47
2023-01-12T02:54:13.278Z,6.47
2023-01-12T02:56:46.310Z,6.55
2023-01-12T02:59:29.021Z,6.46
2023-01-12T03:02:22.941Z,6.50
2023-01-12T03:04:50.462Z,6.53
2023-01-12T03:08:01.518Z,6.52
2023-01-12T03:10:48.465Z,6.53
2023-01-12T03:13:17.954Z,6.51
2023-01-12T03:15:57.511Z,6.47
2023-01-12T03:19:02.249Z,6.56
2023-01-12T03:21:37.278Z,6.53
2023-01-12T03:24:17.112Z,6.57
2023-01-12T03:26:54.953Z,6.53
2023-01-12T03:29:50.264Z,6.55
2023-01-12T03:32:20.056Z,6.62
2023-01-12T03:34:47.544Z,6.58
2023-01-12T03:37:38.408Z,6.60
2023-01-12T03:40:22.133Z,6.60
2023-01-12T03:43:15.921Z,6.58
2023-01-12T03:45:58.718Z,6.58
2023-01-12T03:49:00.764Z,6.59
2023-01-12T03:51:39.298Z,6.58
2023-01-12T03:54:10.177Z,6.58
2023-01-12T03:56:39.085Z,6.57
2023-01-12T03:59:06.603Z,6.59
2023-01-12T04:01:33.717Z,6.59
2023-01-12T04:04:01.191Z,6.58
2023-01-12T04:06:28.181Z,6.60
2023-01-12T04:08:55.361Z,6.58
2023-01-12T04:11:41.076Z,6.66
2023-01-12T04:14:08.253Z,6.65
2023-01-12T04:16:35.298Z,6.73
2023-01-12T04:19:02.347Z,6.70
2023-01-12T04:21:47.981Z,6.58
2023-01-12T04:24:15.191Z,6.64
2023-01-12T04:26:42.234Z,6.63
2023-01-12T04:29:09.240Z,6.72
2023-01-12T04:31:36.306Z,6.72
2023-01-12T04:34:03.469Z,6.76
2023-01-12T04:36:33.649Z,6.75
2023-01-12T04:39:00.636Z,6.76
2023-01-12T04:41:27.732Z,6.83
2023-01-12T04:43:55.226Z,6.79
2023-01-12T04:46:22.218Z,6.77
2023-01-12T04:48:49.291Z,6.71
2023-01-12T04:51:16.352Z,6.69
2023-01-12T04:53:43.439Z,6.76
2023-01-12T04:56:10.532Z,6.77
2023-01-12T04:58:37.677Z,6.77
2023-01-12T05:01:15.607Z,6.84
2023-01-12T05:03:43.558Z,6.81
2023-01-12T05:06:11.516Z,6.84
2023-01-12T05:08:57.827Z,6.85
2023-01-12T05:11:28.905Z,6.92
2023-01-12T05:13:57.260Z,6.94
2023-01-12T05:16:27.473Z,6.89
2023-01-12T05:18:54.692Z,6.92
2023-01-12T05:21:24.183Z,6.96
2023-01-12T05:23:53.353Z,6.98
2023-01-12T05:26:20.662Z,6.98
2023-01-12T05:28:51.653Z,7.00
2023-01-12T05:31:22.175Z,7.01
2023-01-12T05:33:49.368Z,7.10
2023-01-12T05:36:18.399Z,7.10
2023-01-12T05:38:45.470Z,7.12
2023-01-12T05:41:18.121Z,7.18
2023-01-12T05:43:54.866Z,7.18
2023-01-12T05:46:30.609Z,7.21
2023-01-12T05:48:58.836Z,7.24
2023-01-12T05:51:30.807Z,7.26
2023-01-12T05:54:00.958Z,7.28
2023-01-12T05:56:28.618Z,7.30
2023-01-12T05:59:00.274Z,7.14
2023-01-12T06:01:29.484Z,7.25
2023-01-12T06:04:04.303Z,7.28
2023-01-12T06:06:32.239Z,7.33
2023-01-12T06:09:00.991Z,7.33
2023-01-12T06:11:46.757Z,7.33
2023-01-12T06:14:14.518Z,7.38
2023-01-12T06:16:43.644Z,7.34
2023-01-12T06:19:14.375Z,7.38
2023-01-12T06:21:41.968Z,7.39
2023-01-12T06:24:09.540Z,7.38
2023-01-12T06:26:36.650Z,7.37
2023-01-12T06:29:06.756Z,7.41
2023-01-12T06:31:34.233Z,7.47
2023-01-12T06:34:01.496Z,7.41
2023-01-12T06:36:28.624Z,7.40
2023-01-12T06:38:55.646Z,7.41
2023-01-12T06:41:41.201Z,7.42
2023-01-12T06:44:08.215Z,7.46
2023-01-12T06:46:35.302Z,7.46
2023-01-12T06:49:05.543Z,7.43
2023-01-12T06:51:32.798Z,7.41
2023-01-12T06:54:01.379Z,7.42
2023-01-12T06:56:28.712Z,7.47
2023-01-12T06:58:55.801Z,7.51
2023-01-12T07:01:26.962Z,7.53
2023-01-12T07:03:54.293Z,7.53
2023-01-12T07:06:24.185Z,7.57
2023-01-12T07:08:51.236Z,7.55
2023-01-12T07:11:18.370Z,7.57
2023-01-12T07:13:45.490Z,7.59
2023-01-12T07:16:12.940Z,7.58
2023-01-12T07:18:40.058Z,7.62
2023-01-12T07:21:13.953Z,7.62
2023-01-12T07:23:44.148Z,7.58
2023-01-12T07:26:12.177Z,7.67
2023-01-12T07:28:40.365Z,7.57
2023-01-12T07:31:07.810Z,7.59
2023-01-12T07:33:36.730Z,7.59
2023-01-12T07:36:04.888Z,7.62
2023-01-12T07:38:32.780Z,7.69
2023-01-12T07:41:05.137Z,7.69
2023-01-12T07:43:35.952Z,7.72
2023-01-12T07:46:03.160Z,7.74
2023-01-12T07:48:30.755Z,7.67
2023-01-12T07:50:59.465Z,7.70
2023-01-12T07:53:26.519Z,7.79
2023-01-12T07:55:53.634Z,7.73
2023-01-12T07:58:21.180Z,7.74
2023-01-12T08:00:48.212Z,7.55
2023-01-12T08:03:15.380Z,7.65
2023-01-12T08:05:42.818Z,7.68
2023-01-12T08:08:10.431Z,7.66
2023-01-12T08:10:37.854Z,7.67
2023-01-12T08:13:04.910Z,7.74
2023-01-12T08:15:40.228Z,7.74
2023-01-12T08:18:36.852Z,7.73
2023-01-12T08:21:11.680Z,7.82
2023-01-12T08:23:56.280Z,7.76
2023-01-12T08:26:31.960Z,7.92
2023-01-12T08:29:34.870Z,7.97
2023-01-12T08:34:42.084Z,8.00
2023-01-12T08:37:16.472Z,8.02
2023-01-12T08:39:43.745Z,8.00
2023-01-12T08:42:11.277Z,8.08
2023-01-12T08:44:38.718Z,8.13
2023-01-12T08:47:19.162Z,8.15
2023-01-12T08:49:48.298Z,8.19
2023-01-12T08:52:16.626Z,8.17
2023-01-12T08:54:44.164Z,8.27
2023-01-12T08:57:11.451Z,8.24
2023-01-12T08:59:38.699Z,8.25
2023-01-12T09:02:06.005Z,8.31
2023-01-12T09:04:39.577Z,8.32
2023-01-12T09:07:13.530Z,8.34
2023-01-12T09:09:40.655Z,8.42
2023-01-12T09:12:07.875Z,8.51
2023-01-12T09:14:39.162Z,8.48
2023-01-12T09:17:07.667Z,8.39
2023-01-12T09:19:38.031Z,8.40
2023-01-12T09:22:05.288Z,8.43
2023-01-12T09:24:32.325Z,8.55
2023-01-12T09:27:00.179Z,8.54
2023-01-12T09:29:27.641Z,8.55
2023-01-12T09:31:56.297Z,8.60
2023-01-12T09:34:23.431Z,8.60
2023-01-12T09:36:53.538Z,8.71
2023-01-12T09:39:27.640Z,8.69
2023-01-12T09:42:16.222Z,8.68
2023-01-12T09:45:09.075Z,8.71
2023-01-12T09:47:40.609Z,8.73
2023-01-12T09:50:32.686Z,8.77
2023-01-12T09:53:27.614Z,8.79
2023-01-12T09:56:43.663Z,8.88
2023-01-12T09:59:51.591Z,8.90
2023-01-12T10:02:18.859Z,8.96
2023-01-12T10:04:49.684Z,9.15
2023-01-12T10:07:18.489Z,9.16
2023-01-12T10:09:46.280Z,9.13
2023-01-12T10:12:31.161Z,9.15
2023-01-12T10:15:31.054Z,9.21
2023-01-12T10:18:33.256Z,9.29
2023-01-12T10:21:00.952Z,9.27
2023-01-12T10:23:28.514Z,9.30
2023-01-12T10:26:24.314Z,9.30
2023-01-12T10:28:55.514Z,9.28
2023-01-12T10:31:27.012Z,9.28
2023-01-12T10:34:10.133Z,9.43
2023-01-12T10:36:49.129Z,9.36
2023-01-12T10:39:33.838Z,9.46
2023-01-12T10:42:43.123Z,9.45
2023-01-12T10:45:26.988Z,9.41
2023-01-12T10:47:56.235Z,9.45
2023-01-12T10:50:33.038Z,9.46
2023-01-12T10:53:17.468Z,9.46
2023-01-12T10:55:45.392Z,9.39
2023-01-12T10:58:29.425Z,9.47
2023-01-12T11:00:57.556Z,9.53
2023-01-12T11:03:42.051Z,9.47
2023-01-12T11:06:29.194Z,9.43
2023-01-12T11:09:17.493Z,9.35
2023-01-12T11:11:47.474Z,9.25
2023-01-12T11:14:37.152Z,9.20
2023-01-12T11:17:26.639Z,9.26
2023-01-12T11:19:57.479Z,9.22
2023-01-12T11:22:37.295Z,9.15
2023-01-12T11:25:26.612Z,9.15
2023-01-12T11:28:10.712Z,9.15
2023-01-12T11:30:51.769Z,9.12
2023-01-12T11:33:47.421Z,9.08
2023-01-12T11:36:31.109Z,9.14
2023-01-12T11:39:12.627Z,9.12
2023-01-12T11:42:14.151Z,9.10
2023-01-12T11:45:14.657Z,9.06
2023-01-12T11:48:23.092Z,8.94
2023-01-12T11:50:53.405Z,8.85
2023-01-12T11:53:24.135Z,8.93
2023-01-12T11:56:35.987Z,9.01
2023-01-12T11:59:21.014Z,9.05
2023-01-12T12:02:39.319Z,9.03
2023-01-12T12:05:49.401Z,9.08
2023-01-12T12:09:10.493Z,9.11
2023-01-12T12:12:02.115Z,9.11
2023-01-12T12:14:57.302Z,9.16
2023-01-12T12:18:09.634Z,9.16
2023-01-12T12:21:30.058Z,9.15
2023-01-12T12:24:44.723Z,9.24
2023-01-12T12:27:48.875Z,9.13
2023-01-12T12:30:40.459Z,9.18
2023-01-12T12:33:57.061Z,9.19
2023-01-12T12:36:49.505Z,9.27
2023-01-12T12:40:02.347Z,9.38
2023-01-12T12:43:10.053Z,9.38
2023-01-12T12:46:12.577Z,9.35
2023-01-12T12:49:04.871Z,9.45
2023-01-12T12:51:35.389Z,9.45
2023-01-12T12:54:10.783Z,9.45
2023-01-12T12:56:38.825Z,9.47
2023-01-12T12:59:06.263Z,9.51
2023-01-12T13:01:35.468Z,9.48
2023-01-12T13:04:08.362Z,9.51
2023-01-12T13:06:49.502Z,9.58
2023-01-12T13:09:16.507Z,9.55
2023-01-12T13:12:19.009Z,9.64
2023-01-12T13:15:19.696Z,9.69
2023-01-12T13:17:49.576Z,9.70
2023-01-12T13:20:25.711Z,9.65
2023-01-12T13:22:53.765Z,9.61
2023-01-12T13:25:24.201Z,9.68
2023-01-12T13:28:00.363Z,9.67
2023-01-12T13:30:29.987Z,9.69
2023-01-12T13:33:24.154Z,9.75
2023-01-12T13:35:50.968Z,9.82
2023-01-12T13:38:45.223Z,9.79
2023-01-12T13:41:38.472Z,9.81
2023-01-12T13:44:14.875Z,9.73
2023-01-12T13:46:51.322Z,9.72
2023-01-12T13:49:57.469Z,9.77
2023-01-12T13:52:37.154Z,9.74
2023-01-12T13:55:22.904Z,9.81
2023-01-12T13:58:16.862Z,9.78
2023-01-12T14:01:03.536Z,9.80
2023-01-12T14:04:20.385Z,9.81
2023-01-12T14:07:09.161Z,9.77
2023-01-12T14:10:25.721Z,9.73
2023-01-12T14:13:52.215Z,9.77
2023-01-12T14:16:37.732Z,9.70
2023-01-12T14:19:28.804Z,9.68
2023-01-12T14:22:04.837Z,9.69
2023-01-12T14:24:43.377Z,9.70
2023-01-12T14:27:27.355Z,9.74
2023-01-12T14:29:55.028Z,9.72
2023-01-12T14:32:33.921Z,9.77
2023-01-12T14:35:01.201Z,9.74
2023-01-12T14:37:40.613Z,9.74
2023-01-12T14:40:31.467Z,9.77
2023-01-12T14:43:19.700Z,9.77
2023-01-12T14:46:21.145Z,9.74
2023-01-12T14:49:17.386Z,9.77
2023-01-12T14:52:15.790Z,9.80
2023-01-12T14:54:47.129Z,9.74
2023-01-12T14:57:36.501Z,9.74
2023-01-12T15:00:05.103Z,9.71
2023-01-12T15:02:41.993Z,9.78
2023-01-12T15:05:26.863Z,9.81
2023-01-12T15:08:08.113Z,9.80
2023-01-12T15:10:42.321Z,9.88
2023-01-12T15:13:35.321Z,9.79
2023-01-12T15:16:25.240Z,9.83
2023-01-12T15:19:11.019Z,9.83
2023-01-12T15:21:58.626Z,9.88
2023-01-12T15:24:52.850Z,9.91
2023-01-12T15:27:24.370Z,9.88
2023-01-12T15:29:51.917Z,9.86
2023-01-12T15:32:46.383Z,9.82
2023-01-12T15:35:23.624Z,9.83
2023-01-12T15:37:55.176Z,9.84
2023-01-12T15:40:24.746Z,9.83
2023-01-12T15:42:56.157Z,9.83
2023-01-12T15:45:40.757Z,9.87
2023-01-12T15:48:10.874Z,9.88
2023-01-12T15:50:42.945Z,9.88
2023-01-12T15:53:24.153Z,9.84
2023-01-12T15:55:52.676Z,9.85
2023-01-12T15:58:20.063Z,9.91
2023-01-12T16:00:55.524Z,9.87
2023-01-12T16:03:54.507Z,9.88
2023-01-12T16:06:09.672Z,9.93
2023-01-12T16:08:36.973Z,9.90
2023-01-12T16:11:14.242Z,9.94
2023-01-12T16:13:41.947Z,9.91
2023-01-12T16:16:16.815Z,9.96
2023-01-12T16:18:44.642Z,9.96
2023-01-12T16:21:22.597Z,9.97
2023-01-12T16:23:50.244Z,10.04
2023-01-12T16:26:28.263Z,10.05
2023-01-12T16:28:57.678Z,10.03
2023-01-12T16:31:25.504Z,10.06
2023-01-12T16:33:55.775Z,10.02
2023-01-12T16:36:28.556Z,10.00
2023-01-12T16:38:58.622Z,10.02
2023-01-12T16:41:25.879Z,10.01
2023-01-12T16:43:54.500Z,10.00
2023-01-12T16:46:21.601Z,10.05
2023-01-12T16:48:48.694Z,10.06
2023-01-12T16:51:18.661Z,10.07
2023-01-12T16:53:47.292Z,10.12
2023-01-12T16:56:16.416Z,10.13
2023-01-12T16:58:48.189Z,10.12
2023-01-12T17:01:24.679Z,10.12
2023-01-12T17:03:57.483Z,10.12
2023-01-12T17:06:27.660Z,10.09
2023-01-12T17:08:55.816Z,10.08
2023-01-12T17:11:24.864Z,10.10
2023-01-12T17:13:55.930Z,10.08
2023-01-12T17:16:27.502Z,10.15
2023-01-12T17:18:55.029Z,10.15
2023-01-12T17:21:22.702Z,10.19
2023-01-12T17:23:50.042Z,10.17
2023-01-12T17:26:21.418Z,10.11
2023-01-12T17:28:48.537Z,10.18
2023-01-12T17:31:21.020Z,10.09
2023-01-12T17:33:48.443Z,10.15
2023-01-12T17:36:17.031Z,10.18
2023-01-12T17:38:44.363Z,10.11
2023-01-12T17:41:36.984Z,10.13
2023-01-12T17:44:07.000Z,10.20
2023-01-12T17:46:34.911Z,10.22
2023-01-12T17:49:07.068Z,10.22
2023-01-12T17:51:43.050Z,10.25
2023-01-12T17:54:15.835Z,10.24
2023-01-12T17:56:46.221Z,10.27
2023-01-12T17:59:20.874Z,10.23
2023-01-12T18:01:52.063Z,10.28
2023-01-12T18:04:19.539Z,10.29
2023-01-12T18:06:46.586Z,10.32
2023-01-12T18:09:14.284Z,10.31
2023-01-12T18:11:47.915Z,10.31
2023-01-12T18:14:15.250Z,10.31
2023-01-12T18:16:42.579Z,10.28
2023-01-12T18:19:11.351Z,10.32
2023-01-12T18:21:41.773Z,10.26
2023-01-12T18:24:09.043Z,10.29
2023-01-12T18:26:36.346Z,10.31
2023-01-12T18:29:06.195Z,10.28
2023-01-12T18:31:38.006Z,10.31
2023-01-12T18:34:10.862Z,10.31
2023-01-12T18:36:41.073Z,10.30
2023-01-12T18:39:20.644Z,10.33
2023-01-12T18:42:08.640Z,10.35
2023-01-12T18:44:38.004Z,10.41
2023-01-12T18:47:24.037Z,10.34
2023-01-12T18:49:53.723Z,10.37
2023-01-12T18:52:39.234Z,10.35
2023-01-12T18:55:07.264Z,10.37
2023-01-12T18:57:35.103Z,10.33
2023-01-12T19:00:14.032Z,10.40
2023-01-12T19:02:41.819Z,10.40
2023-01-12T19:05:42.558Z,10.38
2023-01-12T19:08:30.394Z,10.45
2023-01-12T19:11:11.852Z,10.44
2023-01-12T19:13:58.287Z,10.46
2023-01-12T19:17:01.688Z,10.45
2023-01-12T19:19:35.502Z,10.44
2023-01-12T19:22:23.588Z,10.46
2023-01-12T19:25:15.001Z,10.48
2023-01-12T19:28:00.804Z,10.44
2023-01-12T19:30:36.419Z,10.43
2023-01-12T19:33:06.533Z,10.51
2023-01-12T19:35:33.659Z,10.50
2023-01-12T19:38:03.989Z,10.47
2023-01-12T19:40:43.973Z,10.45
2023-01-12T19:43:20.868Z,10.46
2023-01-12T19:45:58.950Z,10.46
2023-01-12T19:48:26.868Z,10.49
2023-01-12T19:50:54.983Z,10.53
2023-01-12T19:53:30.401Z,10.48
2023-01-12T19:55:57.566Z,10.53
2023-01-12T19:58:26.746Z,10.53
2023-01-12T20:00:55.944Z,10.52
2023-01-12T20:03:24.448Z,10.52
2023-01-12T20:05:53.011Z,10.46
2023-01-12T20:08:24.709Z,10.48
2023-01-12T20:11:01.993Z,10.41
2023-01-12T20:13:30.490Z,10.37
2023-01-12T20:15:57.958Z,10.32
2023-01-12T20:18:25.221Z,10.25
2023-01-12T20:20:58.587Z,10.18
2023-01-12T20:23:25.882Z,10.19
2023-01-12T20:25:53.167Z,10.19
2023-01-12T20:28:20.284Z,10.09
2023-01-12T20:30:47.645Z,10.04
2023-01-12T20:33:14.713Z,9.95
2023-01-12T20:35:47.998Z,10.03
2023-01-12T20:38:16.886Z,9.96
2023-01-12T20:40:53.406Z,9.94
2023-01-12T20:43:22.800Z,9.96
2023-01-12T20:45:50.115Z,9.92
2023-01-12T20:48:26.309Z,9.87
2023-01-12T20:50:55.123Z,9.82
2023-01-12T20:53:23.767Z,9.81
2023-01-12T20:55:51.678Z,9.83
2023-01-12T20:58:19.772Z,9.83
2023-01-12T21:00:50.291Z,9.77
2023-01-12T21:03:20.961Z,9.81
2023-01-12T21:05:48.886Z,9.75
2023-01-12T21:08:18.309Z,9.77
2023-01-12T21:10:52.215Z,9.78
2023-01-12T21:13:21.021Z,9.76
2023-01-12T21:15:48.103Z,9.74
2023-01-12T21:18:15.165Z,9.69
2023-01-12T21:20:43.614Z,9.67
2023-01-12T21:23:11.479Z,9.72
2023-01-12T21:25:46.418Z,9.66
2023-01-12T21:28:14.262Z,9.64
2023-01-12T21:30:41.449Z,9.66
2023-01-12T21:33:09.033Z,9.67
2023-01-12T21:35:36.961Z,9.70
2023-01-12T21:38:04.293Z,9.65
2023-01-12T21:40:35.360Z,9.67
2023-01-12T21:43:08.532Z,9.61
2023-01-12T21:45:45.594Z,9.58
2023-01-12T21:48:15.814Z,9.57
2023-01-12T21:50:43.838Z,9.64
2023-01-12T21:53:23.483Z,9.62
2023-01-12T21:55:57.748Z,9.61
2023-01-12T21:58:26.863Z,9.55
2023-01-12T22:00:55.201Z,9.46
2023-01-12T22:03:27.494Z,9.37
2023-01-12T22:05:55.576Z,9.37
2023-01-12T22:08:23.578Z,9.31
2023-01-12T22:10:50.570Z,9.28
2023-01-12T22:13:18.074Z,9.26
2023-01-12T22:15:48.297Z,9.30
2023-01-12T22:18:15.316Z,9.23
2023-01-12T22:20:42.740Z,9.24
2023-01-12T22:23:13.024Z,9.18
2023-01-12T22:25:40.324Z,9.22
2023-01-12T22:28:07.343Z,9.22
2023-01-12T22:30:34.330Z,9.19
2023-01-12T22:33:01.354Z,9.26
2023-01-12T22:35:28.360Z,9.21
2023-01-12T22:37:55.772Z,9.15
2023-01-12T22:40:23.039Z,9.20
2023-01-12T22:43:08.682Z,9.22
2023-01-12T22:45:38.147Z,9.16
2023-01-12T22:48:06.091Z,9.16
2023-01-12T22:50:33.511Z,9.19
2023-01-12T22:53:00.635Z,9.21
2023-01-12T22:55:27.813Z,9.23
2023-01-12T22:57:54.881Z,9.16
2023-01-12T23:00:22.389Z,9.21
2023-01-12T23:03:02.388Z,9.21
2023-01-12T23:05:55.934Z,9.21
2023-01-12T23:08:24.320Z,9.20
2023-01-12T23:10:52.161Z,9.19
2023-01-12T23:13:21.364Z,9.18
2023-01-12T23:15:56.755Z,9.18
2023-01-12T23:18:29.884Z,9.20
2023-01-12T23:21:26.483Z,9.20
2023-01-12T23:24:00.764Z,9.20
2023-01-12T23:26:32.699Z,9.20
2023-01-12T23:29:02.891Z,9.23
2023-01-12T23:31:33.570Z,9.19
2023-01-12T23:34:01.419Z,9.20
2023-01-12T23:36:31.008Z,9.20
2023-01-12T23:39:02.865Z,9.22
2023-01-12T23:41:33.995Z,9.23
2023-01-12T23:44:04.958Z,9.21
2023-01-12T23:46:40.230Z,9.24
2023-01-12T23:49:07.320Z,9.22
2023-01-12T23:51:36.246Z,9.16
2023-01-12T23:54:03.661Z,9.25
2023-01-12T23:56:33.215Z,9.34
2023-01-12T23:59:00.705Z,9.45
